Time;durP1;ratioP1;P1;durP2;ratioP2;P2;SDS_P1;SDS_P2;PMS_P1;PMS_P2;Temp;Humidity;BMP_temperature;BMP_pressure;BME280_temperature;BME280_humidity;BME280_pressure;Samples;Min_cycle;Max_cycle;Signal;HPM_P1;HPM_P2
2023/08/10 00:01:39;;;;;;;1999.90;999.90;;;14.90;99.90;;;;;;4971186;28;20447;-69
2023/08/10 00:04:06;;;;;;;1999.90;999.90;;;14.90;99.90;;;;;;4966468;28;20437;-69
2023/08/10 00:06:33;;;;;;;1999.90;999.90;;;15.00;99.90;;;;;;4969721;28;20931;-70
2023/08/10 00:08:59;;;;;;;1999.90;999.90;;;15.10;99.90;;;;;;4971075;28;20440;-68
2023/08/10 00:11:26;;;;;;;1999.90;999.90;;;15.00;99.90;;;;;;4968761;28;20451;-69
2023/08/10 00:13:53;;;;;;;1999.90;999.90;;;15.00;99.90;;;;;;4966969;28;20431;-69
2023/08/10 00:16:19;;;;;;;1999.90;999.90;;;15.10;99.90;;;;;;4968119;28;20435;-70
2023/08/10 00:18:47;;;;;;;1999.90;999.90;;;15.00;99.90;;;;;;4964639;28;20436;-69
2023/08/10 00:21:14;;;;;;;1999.90;999.90;;;15.00;99.90;;;;;;4957244;28;20445;-69
2023/08/10 00:23:41;;;;;;;1999.90;999.90;;;15.00;99.90;;;;;;4970820;28;20808;-69
2023/08/10 00:26:08;;;;;;;1999.90;999.90;;;15.20;99.90;;;;;;4968454;28;20452;-70
2023/08/10 00:28:35;;;;;;;1999.90;999.90;;;15.40;99.90;;;;;;4962579;28;20531;-68
2023/08/10 00:31:01;;;;;;;1999.90;999.90;;;15.50;99.90;;;;;;4958402;28;20914;-69
2023/08/10 00:33:28;;;;;;;1999.90;999.90;;;15.60;99.90;;;;;;4971207;28;20443;-69
2023/08/10 00:35:56;;;;;;;1999.90;999.90;;;15.70;99.90;;;;;;4970648;28;20463;-69
2023/08/10 00:38:23;;;;;;;1999.90;999.90;;;15.60;99.90;;;;;;4969647;28;20440;-68
2023/08/10 00:40:49;;;;;;;1999.90;999.90;;;15.50;99.90;;;;;;4959951;28;20850;-69
2023/08/10 00:43:16;;;;;;;1999.90;999.90;;;15.10;99.90;;;;;;4970414;28;20459;-69
2023/08/10 00:45:43;;;;;;;1999.90;999.90;;;14.70;99.90;;;;;;4971029;28;20436;-69
2023/08/10 00:48:09;;;;;;;1999.90;999.90;;;14.40;99.90;;;;;;4970472;28;20519;-68
2023/08/10 00:50:36;;;;;;;1999.90;999.90;;;14.20;99.90;;;;;;4968470;28;20477;-69
2023/08/10 00:53:04;;;;;;;1999.90;999.90;;;14.20;99.90;;;;;;5016342;23;20436;-71
2023/08/10 00:55:32;;;;;;;1999.90;999.90;;;14.80;99.90;;;;;;5001916;28;20432;-71
2023/08/10 00:57:58;;;;;;;1999.90;999.90;;;14.50;99.90;;;;;;5007201;28;20443;-71
2023/08/10 01:00:25;;;;;;;1999.90;999.90;;;14.50;99.90;;;;;;5006424;28;20428;-71
2023/08/10 01:02:52;;;;;;;1999.90;999.90;;;14.50;99.90;;;;;;4996417;28;20445;-69
2023/08/10 01:05:19;;;;;;;1999.90;999.90;;;14.50;99.90;;;;;;4987523;28;20430;-71
2023/08/10 01:07:53;;;;;;;1999.90;999.90;;;14.50;99.90;;;;;;4986849;28;20521;-71
2023/08/10 01:10:30;;;;;;;1999.90;999.90;;;14.50;99.90;;;;;;4981265;28;20445;-70
2023/08/10 01:13:05;;;;;;;1999.90;999.90;;;14.40;99.90;;;;;;4984383;28;20465;-71
2023/08/10 01:15:38;;;;;;;1999.90;999.90;;;14.30;99.90;;;;;;4987684;28;20842;-72
2023/08/10 01:18:11;;;;;;;1999.90;999.90;;;14.20;99.90;;;;;;4989375;28;20934;-72
2023/08/10 01:20:39;;;;;;;1999.90;999.90;;;14.10;99.90;;;;;;4989768;28;20513;-71
2023/08/10 01:23:14;;;;;;;1999.90;999.90;;;14.00;99.90;;;;;;4988110;28;20437;-72
2023/08/10 01:25:43;;;;;;;1999.90;999.90;;;13.90;99.90;;;;;;4988330;28;20461;-71
2023/08/10 01:28:12;;;;;;;1999.90;999.90;;;14.00;99.90;;;;;;4989200;28;20438;-71
2023/08/10 01:30:39;;;;;;;1999.90;999.90;;;14.20;99.90;;;;;;4989056;28;20449;-71
2023/08/10 01:33:08;;;;;;;1999.90;999.90;;;14.20;99.90;;;;;;4988493;28;20438;-71
2023/08/10 01:35:35;;;;;;;1999.90;999.90;;;14.20;99.90;;;;;;4988427;28;20918;-71
2023/08/10 01:38:02;;;;;;;1999.90;999.90;;;14.10;99.90;;;;;;4989735;28;20438;-71
2023/08/10 01:40:29;;;;;;;1999.90;999.90;;;13.70;99.90;;;;;;4988557;28;20442;-71
2023/08/10 01:42:57;;;;;;;1999.90;999.90;;;13.60;99.90;;;;;;4984189;28;20945;-70
2023/08/10 01:45:24;;;;;;;1999.90;999.90;;;13.70;99.90;;;;;;4987923;28;20434;-71
2023/08/10 01:47:55;;;;;;;1999.90;999.90;;;13.70;99.90;;;;;;4988110;28;20449;-71
2023/08/10 01:50:24;;;;;;;1999.90;999.90;;;13.60;99.90;;;;;;4984974;28;20514;-69
2023/08/10 01:52:55;;;;;;;1999.90;999.90;;;13.60;99.90;;;;;;4987024;28;20462;-71
2023/08/10 01:55:22;;;;;;;1999.90;999.90;;;13.50;99.90;;;;;;4985885;28;20445;-70
2023/08/10 01:57:49;;;;;;;1999.90;999.90;;;13.50;99.90;;;;;;4988063;28;20434;-71
2023/08/10 02:00:18;;;;;;;1999.90;999.90;;;13.60;99.90;;;;;;4989379;28;20449;-71
2023/08/10 02:02:45;;;;;;;1999.90;999.90;;;13.80;99.90;;;;;;4987517;28;20445;-71
2023/08/10 02:05:11;;;;;;;1999.90;999.90;;;13.80;99.90;;;;;;4986838;28;20442;-71
2023/08/10 02:07:38;;;;;;;1999.90;999.90;;;13.70;99.90;;;;;;4988839;28;20996;-71
2023/08/10 02:10:06;;;;;;;1999.90;999.90;;;13.60;99.90;;;;;;4989259;28;20460;-72
2023/08/10 02:12:33;;;;;;;1999.90;999.90;;;13.50;99.90;;;;;;4987504;28;20438;-71
2023/08/10 02:14:59;;;;;;;1999.90;999.90;;;13.40;99.90;;;;;;4988397;28;20524;-70
2023/08/10 02:17:28;;;;;;;1999.90;999.90;;;13.20;99.90;;;;;;4980019;28;20461;-71
2023/08/10 02:19:56;;;;;;;1999.90;999.90;;;13.20;99.90;;;;;;4987846;28;20438;-71
2023/08/10 02:22:23;;;;;;;1999.90;999.90;;;13.00;99.90;;;;;;4987757;28;20926;-72
2023/08/10 02:24:49;;;;;;;1999.90;999.90;;;13.10;99.90;;;;;;4988132;28;20461;-70
2023/08/10 02:27:17;;;;;;;1999.90;999.90;;;13.20;99.90;;;;;;4988455;28;20429;-71
2023/08/10 02:29:45;;;;;;;1999.90;999.90;;;13.10;99.90;;;;;;4989036;28;20438;-71
2023/08/10 02:32:16;;;;;;;1999.90;999.90;;;13.10;99.90;;;;;;4987847;28;20438;-71
2023/08/10 02:34:44;;;;;;;1999.90;999.90;;;13.10;99.90;;;;;;4989391;28;20555;-71
2023/08/10 02:37:11;;;;;;;1999.90;999.90;;;13.00;99.90;;;;;;4988326;28;20438;-71
2023/08/10 02:39:37;;;;;;;1999.90;999.90;;;13.00;99.90;;;;;;4988121;28;20434;-69
2023/08/10 02:42:04;;;;;;;1999.90;999.90;;;13.10;99.90;;;;;;4987659;28;20952;-71
2023/08/10 02:44:31;;;;;;;1999.90;999.90;;;13.20;99.90;;;;;;4988937;28;20434;-71
2023/08/10 02:46:57;;;;;;;1999.90;999.90;;;13.30;99.90;;;;;;4987822;28;20445;-70
2023/08/10 02:49:24;;;;;;;1999.90;999.90;;;13.20;99.90;;;;;;4987835;28;20922;-72
2023/08/10 02:51:52;;;;;;;1999.90;999.90;;;13.30;99.90;;;;;;4987291;28;20498;-71
2023/08/10 02:54:19;;;;;;;1999.90;999.90;;;13.10;99.90;;;;;;4986704;28;20438;-71
2023/08/10 02:56:45;;;;;;;1999.90;999.90;;;13.20;99.90;;;;;;4988045;28;20442;-71
2023/08/10 02:59:12;;;;;;;1999.90;999.90;;;13.20;99.90;;;;;;4988214;28;20442;-71
2023/08/10 03:01:39;;;;;;;1999.90;999.90;;;13.20;99.90;;;;;;4988048;28;20438;-70
2023/08/10 03:04:06;;;;;;;1999.90;999.90;;;13.20;99.90;;;;;;4988795;28;20445;-71
2023/08/10 03:06:33;;;;;;;1999.90;999.90;;;13.20;99.90;;;;;;4989854;28;20989;-71
2023/08/10 03:09:02;;;;;;;1999.90;999.90;;;13.30;99.90;;;;;;4990822;28;20441;-69
2023/08/10 03:11:29;;;;;;;1999.90;999.90;;;13.40;99.90;;;;;;4983866;28;20462;-68
2023/08/10 03:13:55;;;;;;;1999.90;999.90;;;13.60;99.90;;;;;;4992134;28;20442;-70
2023/08/10 03:16:22;;;;;;;1999.90;999.90;;;13.70;99.90;;;;;;4990569;28;20442;-71
2023/08/10 03:18:49;;;;;;;1999.90;999.90;;;13.80;99.90;;;;;;4991635;28;20446;-71
2023/08/10 03:21:15;;;;;;;1999.90;999.90;;;13.70;99.90;;;;;;4991373;28;20456;-72
2023/08/10 03:23:42;;;;;;;1999.90;999.90;;;13.60;99.90;;;;;;4990720;28;20441;-71
2023/08/10 03:26:10;;;;;;;1999.90;999.90;;;13.60;99.90;;;;;;4991033;28;20442;-71
2023/08/10 03:28:37;;;;;;;1999.90;999.90;;;13.50;99.90;;;;;;4991680;28;20976;-70
2023/08/10 03:31:04;;;;;;;1999.90;999.90;;;13.50;99.90;;;;;;4991011;28;20953;-69
2023/08/10 03:33:30;;;;;;;1999.90;999.90;;;13.40;99.90;;;;;;4989435;28;20434;-71
2023/08/10 03:35:59;;;;;;;1999.90;999.90;;;13.40;99.90;;;;;;4988627;28;21316;-71
2023/08/10 03:38:25;;;;;;;1999.90;999.90;;;13.40;99.90;;;;;;4991389;28;20930;-71
2023/08/10 03:40:52;;;;;;;1999.90;999.90;;;13.40;99.90;;;;;;4991243;28;20849;-71
2023/08/10 03:43:20;;;;;;;1999.90;999.90;;;13.30;99.90;;;;;;4990627;28;20438;-70
2023/08/10 03:45:47;;;;;;;1999.90;999.90;;;13.30;99.90;;;;;;4990021;28;20442;-70
2023/08/10 03:48:14;;;;;;;1999.90;999.90;;;13.40;99.90;;;;;;4991290;28;20445;-72
2023/08/10 03:50:40;;;;;;;1999.90;999.90;;;13.40;99.90;;;;;;4991060;28;20441;-71
2023/08/10 03:53:07;;;;;;;1999.90;999.90;;;13.50;99.90;;;;;;4994678;28;20437;-71
2023/08/10 03:55:34;;;;;;;1999.90;999.90;;;13.40;99.90;;;;;;4990993;28;20438;-71
2023/08/10 03:58:01;;;;;;;1999.90;999.90;;;13.30;99.90;;;;;;4991005;28;20938;-71
2023/08/10 04:00:29;;;;;;;1999.90;999.90;;;13.30;99.90;;;;;;4991147;28;20450;-69
2023/08/10 04:02:55;;;;;;;1999.90;999.90;;;13.40;99.90;;;;;;4988476;28;20446;-71
2023/08/10 04:05:22;;;;;;;1999.90;999.90;;;13.30;99.90;;;;;;4990233;28;20509;-71
2023/08/10 04:07:48;;;;;;;1999.90;999.90;;;13.20;99.90;;;;;;4990377;28;20441;-71
2023/08/10 04:10:15;;;;;;;1999.90;999.90;;;13.10;99.90;;;;;;4990953;28;20438;-71
2023/08/10 04:12:42;;;;;;;1999.90;999.90;;;13.00;99.90;;;;;;4985024;28;20529;-71
2023/08/10 04:15:09;;;;;;;1999.90;999.90;;;13.10;99.90;;;;;;4991138;28;20434;-69
2023/08/10 04:17:37;;;;;;;1999.90;999.90;;;13.00;99.90;;;;;;4989890;28;20437;-71
2023/08/10 04:20:08;;;;;;;1999.90;999.90;;;13.00;99.90;;;;;;4991087;28;20858;-71
2023/08/10 04:22:35;;;;;;;1999.90;999.90;;;13.00;99.90;;;;;;4982038;28;20629;-71
2023/08/10 04:25:03;;;;;;;1999.90;999.90;;;13.10;99.90;;;;;;4991008;28;20441;-71
2023/08/10 04:27:30;;;;;;;1999.90;999.90;;;13.10;99.90;;;;;;4989469;28;20441;-72
2023/08/10 04:29:57;;;;;;;1999.90;999.90;;;13.10;99.90;;;;;;4989761;28;20441;-71
2023/08/10 04:32:23;;;;;;;1999.90;999.90;;;13.10;99.90;;;;;;4989380;28;20472;-71
2023/08/10 04:34:52;;;;;;;1999.90;999.90;;;13.50;99.90;;;;;;4990640;28;20810;-72
2023/08/10 04:37:19;;;;;;;1999.90;999.90;;;13.40;99.90;;;;;;4990339;28;20466;-71
2023/08/10 04:39:46;;;;;;;1999.90;999.90;;;13.40;99.90;;;;;;4989898;28;20434;-71
2023/08/10 04:42:14;;;;;;;1999.90;999.90;;;13.60;99.90;;;;;;4989140;28;20446;-71
2023/08/10 04:44:40;;;;;;;1999.90;999.90;;;14.00;99.90;;;;;;4986630;28;20434;-71
2023/08/10 04:47:07;;;;;;;1999.90;999.90;;;13.90;99.90;;;;;;4989058;28;20438;-71
2023/08/10 04:49:34;;;;;;;1999.90;999.90;;;14.00;99.90;;;;;;4988353;28;20541;-69
2023/08/10 04:52:02;;;;;;;1999.90;999.90;;;13.80;99.90;;;;;;4990393;28;20446;-71
2023/08/10 04:54:29;;;;;;;1999.90;999.90;;;14.40;99.90;;;;;;4989996;28;20466;-71
2023/08/10 04:56:55;;;;;;;1999.90;999.90;;;14.70;99.90;;;;;;4989237;28;20921;-72
2023/08/10 04:59:22;;;;;;;1999.90;999.90;;;14.90;99.90;;;;;;4989307;28;20488;-71
2023/08/10 05:01:49;;;;;;;1999.90;999.90;;;15.00;99.90;;;;;;4988345;28;20446;-71
2023/08/10 05:04:16;;;;;;;1999.90;999.90;;;15.10;99.90;;;;;;4990307;28;20438;-71
2023/08/10 05:06:42;;;;;;;1999.90;999.90;;;15.30;99.90;;;;;;4989575;28;20466;-71
2023/08/10 05:09:10;;;;;;;1999.90;999.90;;;15.50;99.90;;;;;;4989452;28;20438;-71
2023/08/10 05:11:38;;;;;;;1999.90;999.90;;;15.50;99.90;;;;;;4989176;28;20795;-72
2023/08/10 05:14:05;;;;;;;1999.90;999.90;;;15.60;99.90;;;;;;4989909;28;20517;-72
2023/08/10 05:16:31;;;;;;;1999.90;999.90;;;15.60;99.90;;;;;;4988079;28;20439;-71
2023/08/10 05:18:58;;;;;;;1999.90;999.90;;;15.50;99.90;;;;;;4986931;28;20445;-70
2023/08/10 05:21:25;;;;;;;1999.90;999.90;;;15.50;99.90;;;;;;4990044;28;20441;-73
2023/08/10 05:23:51;;;;;;;1999.90;999.90;;;15.50;99.90;;;;;;4988323;28;20438;-69
2023/08/10 05:26:20;;;;;;;1999.90;999.90;;;15.60;99.90;;;;;;4989888;28;20438;-71
2023/08/10 05:28:46;;;;;;;1999.90;999.90;;;15.90;99.90;;;;;;4987402;28;20473;-69
2023/08/10 05:31:14;;;;;;;1999.90;999.90;;;16.10;99.90;;;;;;4989611;28;20442;-71
2023/08/10 05:33:41;;;;;;;1999.90;999.90;;;16.30;99.90;;;;;;4988001;28;21236;-71
2023/08/10 05:36:08;;;;;;;1999.90;999.90;;;16.50;99.90;;;;;;4987617;28;20443;-71
2023/08/10 05:38:35;;;;;;;1999.90;999.90;;;16.80;99.90;;;;;;4989448;28;20445;-71
2023/08/10 05:41:01;;;;;;;1999.90;999.90;;;16.90;99.90;;;;;;4989474;28;20925;-72
2023/08/10 05:43:29;;;;;;;1999.90;999.90;;;17.20;99.90;;;;;;4987319;28;20434;-71
2023/08/10 05:45:56;;;;;;;1999.90;999.90;;;17.30;99.90;;;;;;4989619;28;20437;-71
2023/08/10 05:48:23;;;;;;;1999.90;999.90;;;17.60;99.90;;;;;;4987915;28;20484;-69
2023/08/10 05:50:50;;;;;;;1999.90;999.90;;;18.00;99.90;;;;;;4988592;28;20442;-71
2023/08/10 05:53:17;;;;;;;1999.90;999.90;;;18.30;99.90;;;;;;4988465;28;20441;-71
2023/08/10 05:55:43;;;;;;;1999.90;999.90;;;18.50;99.90;;;;;;4983770;28;20441;-71
2023/08/10 05:58:10;;;;;;;1999.90;999.90;;;18.80;99.90;;;;;;4988200;28;20525;-72
2023/08/10 06:00:39;;;;;;;1999.90;999.90;;;18.80;99.90;;;;;;4987701;28;20461;-71
2023/08/10 06:03:07;;;;;;;1999.90;999.90;;;18.70;99.90;;;;;;4989537;28;20441;-71
2023/08/10 06:05:33;;;;;;;1999.90;999.90;;;18.80;99.90;;;;;;4989392;28;20436;-72
2023/08/10 06:08:00;;;;;;;1999.90;999.90;;;18.90;99.90;;;;;;4987503;28;20445;-71
2023/08/10 06:10:27;;;;;;;1999.90;999.90;;;19.20;99.90;;;;;;4989035;28;20530;-71
2023/08/10 06:12:54;;;;;;;1999.90;999.90;;;19.30;99.90;;;;;;4989047;28;20445;-72
2023/08/10 06:15:20;;;;;;;1999.90;999.90;;;19.60;99.90;;;;;;4989090;28;20434;-71
2023/08/10 06:17:48;;;;;;;1999.90;999.90;;;19.70;99.90;;;;;;4987582;28;20446;-70
2023/08/10 06:20:21;;;;;;;1999.90;999.90;;;19.80;99.90;;;;;;4987248;28;20438;-71
2023/08/10 06:22:48;;;;;;;1999.90;999.90;;;19.50;99.90;;;;;;4985028;28;20434;-71
2023/08/10 06:25:16;;;;;;;1999.90;999.90;;;19.50;99.90;;;;;;4986221;28;20517;-72
2023/08/10 06:27:42;;;;;;;1999.90;999.90;;;19.50;99.90;;;;;;4986130;28;20448;-70
2023/08/10 06:30:10;;;;;;;1999.90;999.90;;;19.60;99.90;;;;;;4986475;28;20493;-70
2023/08/10 06:32:37;;;;;;;1999.90;999.90;;;20.00;99.90;;;;;;4988806;28;20471;-71
2023/08/10 06:35:08;;;;;;;1999.90;999.90;;;20.20;99.90;;;;;;4984431;28;20977;-71
2023/08/10 06:37:35;;;;;;;1999.90;999.90;;;20.30;99.90;;;;;;4982436;28;20427;-70
2023/08/10 06:40:06;;;;;;;1999.90;999.90;;;19.80;99.90;;;;;;4991363;28;20422;-68
2023/08/10 06:42:33;;;;;;;1999.90;999.90;;;20.10;99.90;;;;;;5002221;28;20794;-71
2023/08/10 06:45:00;;;;;;;1999.90;999.90;;;20.20;99.90;;;;;;5014212;28;20428;-71
2023/08/10 06:47:27;;;;;;;1999.90;999.90;;;20.20;99.90;;;;;;5014197;28;20411;-71
2023/08/10 06:49:53;;;;;;;1999.90;999.90;;;20.10;99.90;;;;;;5013945;28;20805;-71
2023/08/10 06:52:22;;;;;;;1999.90;999.90;;;20.00;99.90;;;;;;5030642;23;20445;-66
2023/08/10 06:54:48;;;;;;;1999.90;999.90;;;19.90;99.90;;;;;;4989994;28;20441;-66
2023/08/10 06:57:15;;;;;;;1999.90;999.90;;;19.90;99.90;;;;;;4985833;28;20429;-67
2023/08/10 06:59:42;;;;;;;1999.90;999.90;;;20.20;99.90;;;;;;4993858;28;20421;-67
2023/08/10 07:02:09;;;;;;;1999.90;999.90;;;20.20;99.90;;;;;;4993813;28;20445;-67
2023/08/10 07:04:35;;;;;;;1999.90;999.90;;;19.70;99.90;;;;;;4991638;28;20442;-67
2023/08/10 07:07:03;;;;;;;1999.90;999.90;;;19.60;99.90;;;;;;4987037;28;20421;-67
2023/08/10 07:09:31;;;;;;;1999.90;999.90;;;19.40;99.90;;;;;;4993983;28;20418;-67
2023/08/10 07:11:57;;;;;;;1999.90;999.90;;;19.60;99.90;;;;;;4993440;28;20811;-67
2023/08/10 07:14:24;;;;;;;1999.90;999.90;;;20.10;99.90;;;;;;4993560;28;20890;-67
2023/08/10 07:16:51;;;;;;;1999.90;999.90;;;20.70;99.90;;;;;;4990385;28;20449;-67
2023/08/10 07:19:19;;;;;;;1999.90;999.90;;;21.10;99.90;;;;;;4990351;28;20813;-67
2023/08/10 07:21:45;;;;;;;1999.90;999.90;;;21.40;99.90;;;;;;4990785;28;21000;-67
2023/08/10 07:24:12;;;;;;;1999.90;999.90;;;21.30;99.90;;;;;;4990930;28;20940;-68
2023/08/10 07:26:40;;;;;;;1999.90;999.90;;;21.00;99.90;;;;;;4988774;28;20445;-67
2023/08/10 07:29:07;;;;;;;1999.90;999.90;;;20.80;99.90;;;;;;4989622;28;20472;-66
2023/08/10 07:31:34;;;;;;;1999.90;999.90;;;20.00;99.90;;;;;;4989469;28;21030;-67
2023/08/10 07:34:02;;;;;;;1999.90;999.90;;;19.50;99.90;;;;;;4990871;28;20442;-66
2023/08/10 07:36:28;;;;;;;1999.90;999.90;;;19.20;99.90;;;;;;4991766;28;20438;-67
2023/08/10 07:38:55;;;;;;;1999.90;999.90;;;19.10;99.90;;;;;;4991620;28;20441;-68
2023/08/10 07:41:22;;;;;;;1999.90;999.90;;;19.10;99.90;;;;;;4990830;28;20442;-67
2023/08/10 07:43:51;;;;;;;1999.90;999.90;;;19.10;99.90;;;;;;4990115;28;20874;-67
2023/08/10 07:46:17;;;;;;;1999.90;999.90;;;19.50;99.90;;;;;;4988473;28;20430;-66
2023/08/10 07:48:46;;;;;;;1999.90;999.90;;;19.80;99.90;;;;;;4990566;28;20450;-67
2023/08/10 07:51:13;;;;;;;1999.90;999.90;;;19.80;99.90;;;;;;4989870;28;20446;-67
2023/08/10 07:53:40;;;;;;;1999.90;999.90;;;20.00;99.90;;;;;;4991267;28;20441;-67
2023/08/10 07:56:06;;;;;;;1999.90;999.90;;;20.20;99.90;;;;;;4991535;28;20478;-67
2023/08/10 07:58:33;;;;;;;1999.90;999.90;;;20.80;99.90;;;;;;4990831;28;20442;-67
2023/08/10 08:01:01;;;;;;;1999.90;999.90;;;20.90;99.90;;;;;;4990815;28;20814;-67
2023/08/10 08:03:28;;;;;;;1999.90;999.90;;;21.30;99.90;;;;;;4990233;28;20945;-67
2023/08/10 08:05:54;;;;;;;1999.90;999.90;;;21.60;99.90;;;;;;4991084;28;20993;-66
2023/08/10 08:08:21;;;;;;;1999.90;999.90;;;21.80;99.90;;;;;;4990339;28;20818;-67
2023/08/10 08:10:48;;;;;;;1999.90;999.90;;;21.40;99.90;;;;;;4989638;28;20438;-67
2023/08/10 08:13:14;;;;;;;1999.90;999.90;;;21.00;99.90;;;;;;4990356;28;20434;-66
2023/08/10 08:15:43;;;;;;;1999.90;999.90;;;20.70;99.90;;;;;;4991177;28;20783;-66
2023/08/10 08:18:43;;;;;;;1999.90;999.90;;;20.70;99.90;;;;;;4991335;28;20518;-66
2023/08/10 08:21:11;;;;;;;1999.90;999.90;;;20.80;99.90;;;;;;4985244;28;20434;-66
2023/08/10 08:23:37;;;;;;;1999.90;999.90;;;20.80;99.90;;;;;;4990693;28;20430;-67
2023/08/10 08:26:04;;;;;;;1999.90;999.90;;;21.00;99.90;;;;;;4990358;28;20442;-66
2023/08/10 08:28:31;;;;;;;1999.90;999.90;;;21.30;99.90;;;;;;4990815;28;20814;-67
2023/08/10 08:30:58;;;;;;;1999.90;999.90;;;21.30;99.90;;;;;;4989509;28;20434;-66
2023/08/10 08:33:24;;;;;;;1999.90;999.90;;;21.20;99.90;;;;;;4990107;28;20442;-67
2023/08/10 08:35:52;;;;;;;1999.90;999.90;;;21.20;99.90;;;;;;4990381;28;20445;-67
2023/08/10 08:38:19;;;;;;;1999.90;999.90;;;21.50;99.90;;;;;;4990207;28;20442;-66
2023/08/10 08:40:48;;;;;;;1999.90;999.90;;;21.60;99.90;;;;;;4990365;28;20465;-67
2023/08/10 08:43:15;;;;;;;1999.90;999.90;;;21.50;99.90;;;;;;4989972;28;20438;-66
2023/08/10 08:45:42;;;;;;;1999.90;999.90;;;21.70;99.90;;;;;;4989250;28;20434;-67
2023/08/10 08:48:09;;;;;;;1999.90;999.90;;;21.90;98.30;;;;;;4989176;28;20445;-67
2023/08/10 08:50:37;;;;;;;1999.90;999.90;;;21.70;98.40;;;;;;4990583;28;20530;-66
2023/08/10 08:53:08;;;;;;;1999.90;999.90;;;21.50;99.90;;;;;;4990411;28;20795;-67
2023/08/10 08:55:35;;;;;;;1999.90;999.90;;;21.50;98.80;;;;;;4990838;28;20513;-67
2023/08/10 08:58:01;;;;;;;1999.90;999.90;;;21.80;99.80;;;;;;4988810;28;20945;-67
2023/08/10 09:00:31;;;;;;;1999.90;999.90;;;22.00;99.40;;;;;;4990392;28;20530;-67
2023/08/10 09:02:57;;;;;;;1999.90;999.90;;;22.10;98.90;;;;;;4989489;28;20442;-66
2023/08/10 09:05:24;;;;;;;1999.90;999.90;;;21.80;99.10;;;;;;4990365;28;20446;-66
2023/08/10 09:07:51;;;;;;;1999.90;999.90;;;21.80;99.80;;;;;;4987804;28;20791;-66
2023/08/10 09:10:20;;;;;;;1999.90;999.90;;;21.80;99.60;;;;;;4990229;28;20457;-67
2023/08/10 09:12:48;;;;;;;1999.90;999.90;;;21.90;98.90;;;;;;4988389;28;20891;-67
2023/08/10 09:15:16;;;;;;;1999.90;999.90;;;22.30;98.70;;;;;;4990194;28;20434;-67
2023/08/10 09:17:46;;;;;;;1999.90;999.90;;;22.60;99.10;;;;;;4988660;28;20434;-67
2023/08/10 09:20:19;;;;;;;1999.90;999.90;;;22.90;97.00;;;;;;4990087;28;21021;-66
2023/08/10 09:22:46;;;;;;;1999.90;999.90;;;22.70;97.10;;;;;;4990015;28;20926;-67
2023/08/10 09:25:13;;;;;;;1999.90;999.90;;;22.80;96.60;;;;;;4990835;28;20431;-67
2023/08/10 09:27:41;;;;;;;1999.90;999.90;;;23.10;96.30;;;;;;4987913;28;20470;-67
2023/08/10 09:30:08;;;;;;;1999.90;999.90;;;23.30;95.10;;;;;;4982561;28;20438;-67
2023/08/10 09:32:36;;;;;;;1999.90;999.90;;;23.60;95.20;;;;;;4990437;28;20446;-67
2023/08/10 09:35:03;;;;;;;1999.90;999.90;;;23.60;95.60;;;;;;4990371;28;20435;-67
2023/08/10 09:37:30;;;;;;;1999.90;999.90;;;24.00;95.20;;;;;;4988887;28;20945;-67
2023/08/10 09:39:58;;;;;;;1999.90;999.90;;;24.20;94.80;;;;;;4983045;28;20438;-67
2023/08/10 09:42:25;;;;;;;1999.90;999.90;;;23.70;96.10;;;;;;4986779;28;20789;-67
2023/08/10 09:44:54;;;;;;;1999.90;999.90;;;23.30;96.70;;;;;;4986575;28;20446;-66
2023/08/10 09:47:21;;;;;;;1999.90;999.90;;;23.10;97.60;;;;;;4988245;28;20477;-67
2023/08/10 09:49:55;;;;;;;1999.90;999.90;;;22.90;96.80;;;;;;4988438;28;20543;-66
2023/08/10 09:52:22;;;;;;;1999.90;999.90;;;23.00;96.80;;;;;;4987055;28;20462;-66
2023/08/10 09:54:51;;;;;;;1999.90;999.90;;;23.30;95.10;;;;;;4988795;28;20438;-67
2023/08/10 09:57:18;;;;;;;1999.90;999.90;;;22.80;96.10;;;;;;4988914;28;20473;-67
2023/08/10 09:59:46;;;;;;;1999.90;999.90;;;22.70;95.80;;;;;;4988346;28;20434;-67
2023/08/10 10:02:15;;;;;;;1999.90;999.90;;;22.50;97.40;;;;;;4989444;28;20461;-66
2023/08/10 10:04:42;;;;;;;1999.90;999.90;;;22.50;96.30;;;;;;4985819;28;20434;-66
2023/08/10 10:07:11;;;;;;;1999.90;999.90;;;22.30;96.20;;;;;;4988902;28;20434;-66
2023/08/10 10:09:38;;;;;;;1999.90;999.90;;;22.30;96.50;;;;;;4988428;28;20441;-66
2023/08/10 10:12:08;;;;;;;1999.90;999.90;;;22.70;97.30;;;;;;4989735;28;20442;-67
2023/08/10 10:14:36;;;;;;;1999.90;999.90;;;22.60;95.90;;;;;;4990311;28;20460;-66
2023/08/10 10:17:04;;;;;;;1999.90;999.90;;;22.50;96.40;;;;;;4992337;28;20437;-67
2023/08/10 10:19:32;;;;;;;1999.90;999.90;;;22.60;96.20;;;;;;4992326;28;20445;-67
2023/08/10 10:22:00;;;;;;;1999.90;999.90;;;22.70;95.90;;;;;;4989456;28;20442;-67
2023/08/10 10:24:29;;;;;;;1999.90;999.90;;;22.80;95.80;;;;;;4994375;28;20479;-66
2023/08/10 10:27:00;;;;;;;1999.90;999.90;;;22.70;95.00;;;;;;4993129;28;20468;-66
2023/08/10 10:29:37;;;;;;;1999.90;999.90;;;22.70;95.20;;;;;;4991410;28;20434;-66
2023/08/10 10:32:12;;;;;;;1999.90;999.90;;;22.30;93.70;;;;;;4993013;28;20418;-66
2023/08/10 10:34:41;;;;;;;1999.90;999.90;;;22.40;94.70;;;;;;4989305;28;20802;-66
2023/08/10 10:37:10;;;;;;;1999.90;999.90;;;22.60;94.50;;;;;;4990220;28;20806;-67
2023/08/10 10:39:39;;;;;;;1999.90;999.90;;;22.80;94.40;;;;;;4990755;28;20489;-65
2023/08/10 10:42:05;;;;;;;1999.90;999.90;;;22.90;92.80;;;;;;4991155;28;20457;-67
2023/08/10 10:45:03;;;;;;;1999.90;999.90;;;22.60;93.50;;;;;;4991484;28;20437;-67
2023/08/10 10:47:38;;;;;;;1999.90;999.90;;;22.30;95.10;;;;;;4985182;28;20934;-67
2023/08/10 10:50:17;;;;;;;1999.90;999.90;;;22.50;94.50;;;;;;4992399;28;20489;-66
2023/08/10 10:52:54;;;;;;;1999.90;999.90;;;22.70;93.60;;;;;;4991255;28;20442;-66
2023/08/10 10:55:20;;;;;;;1999.90;999.90;;;23.10;94.20;;;;;;4991420;28;20434;-67
2023/08/10 10:57:49;;;;;;;1999.90;999.90;;;23.20;92.40;;;;;;4990330;28;20441;-67
2023/08/10 11:00:17;;;;;;;1999.90;999.90;;;23.20;92.50;;;;;;4988914;28;20458;-66
2023/08/10 11:02:44;;;;;;;1999.90;999.90;;;23.10;93.20;;;;;;4992250;28;20543;-66
2023/08/10 11:05:12;;;;;;;1999.90;999.90;;;23.10;92.50;;;;;;4992815;28;20434;-66
2023/08/10 11:07:42;;;;;;;1999.90;999.90;;;23.10;92.80;;;;;;4992359;28;20430;-66
2023/08/10 11:10:10;;;;;;;1999.90;999.90;;;23.00;93.60;;;;;;4990700;28;20948;-66
2023/08/10 11:12:38;;;;;;;1999.90;999.90;;;23.20;93.50;;;;;;4992008;28;20949;-65
2023/08/10 11:15:07;;;;;;;1999.90;999.90;;;23.40;92.30;;;;;;4992445;28;20485;-67
2023/08/10 11:17:35;;;;;;;1999.90;999.90;;;23.20;91.90;;;;;;4991886;28;20434;-67
2023/08/10 11:20:03;;;;;;;1999.90;999.90;;;22.80;92.20;;;;;;4990646;28;20477;-66
2023/08/10 11:22:30;;;;;;;1999.90;999.90;;;22.60;92.10;;;;;;4991980;28;20541;-65
2023/08/10 11:24:58;;;;;;;1999.90;999.90;;;22.60;92.70;;;;;;4990701;28;20438;-66
2023/08/10 11:27:25;;;;;;;1999.90;999.90;;;22.90;93.70;;;;;;4987639;28;20460;-67
2023/08/10 11:29:54;;;;;;;1999.90;999.90;;;23.00;91.40;;;;;;4991568;28;20446;-66
2023/08/10 11:32:22;;;;;;;1999.90;999.90;;;23.00;92.80;;;;;;4992214;28;20457;-67
2023/08/10 11:34:53;;;;;;;1999.90;999.90;;;23.00;92.10;;;;;;4991275;28;20438;-66
2023/08/10 11:37:29;;;;;;;1999.90;999.90;;;22.70;91.70;;;;;;4991829;28;20431;-66
2023/08/10 11:39:55;;;;;;;1999.90;999.90;;;22.50;92.00;;;;;;4991692;28;20470;-67
2023/08/10 11:42:23;;;;;;;1999.90;999.90;;;22.50;92.80;;;;;;4991603;28;20441;-67
2023/08/10 11:44:52;;;;;;;1999.90;999.90;;;22.80;92.60;;;;;;4990346;28;20446;-66
2023/08/10 11:47:19;;;;;;;1999.90;999.90;;;22.90;92.60;;;;;;4990607;28;20929;-66
2023/08/10 11:49:46;;;;;;;1999.90;999.90;;;23.00;91.80;;;;;;4991088;28;20439;-66
2023/08/10 11:52:15;;;;;;;1999.90;999.90;;;23.00;91.30;;;;;;4990514;28;20550;-66
2023/08/10 11:54:43;;;;;;;1999.90;999.90;;;23.10;91.50;;;;;;4990826;28;20438;-66
2023/08/10 11:57:11;;;;;;;1999.90;999.90;;;23.20;93.00;;;;;;4990668;28;20434;-66
2023/08/10 11:59:39;;;;;;;1999.90;999.90;;;23.20;91.10;;;;;;4991240;28;20473;-65
2023/08/10 12:02:11;;;;;;;1999.90;999.90;;;23.10;91.70;;;;;;4991121;28;20446;-67